Time;durP1;ratioP1;P1;durP2;ratioP2;P2;SDS_P1;SDS_P2;PMS_P1;PMS_P2;Temp;Humidity;BMP_temperature;BMP_pressure;BME280_temperature;BME280_humidity;BME280_pressure;Samples;Min_cycle;Max_cycle;Signal;HPM_P1;HPM_P2
2020/12/16 08:02:31;;;;;;;;;;;;;;;;;;5119684;27;20382;-75
2020/12/16 08:04:58;;;;;;;25.40;5.32;;;;;;;;;;5130132;28;20554;-73
2020/12/16 08:07:24;;;;;;;22.55;5.25;;;;;;;;;;5127195;28;20031;-75
2020/12/16 08:09:56;;;;;;;25.23;4.88;;;;;;;;;;5127333;27;20034;-75
2020/12/16 08:12:22;;;;;;;22.00;4.60;;;;;;;;;;5126066;27;20034;-75
2020/12/16 08:14:47;;;;;;;21.98;4.25;;;;;;;;;;5128900;27;20471;-75
2020/12/16 08:17:12;;;;;;;22.70;3.95;;;;;;;;;;5125313;27;20023;-75
2020/12/16 08:19:38;;;;;;;31.15;4.38;;;;;;;;;;5123553;28;20111;-75
2020/12/16 08:22:16;;;;;;;18.85;3.08;;;;;;;;;;5126117;28;20035;-75
2020/12/16 08:24:42;;;;;;;21.05;4.10;;;;;;;;;;5127274;28;20022;-75
2020/12/16 08:27:07;;;;;;;21.67;3.92;;;;;;;;;;5121195;28;20110;-75
2020/12/16 08:29:33;;;;;;;24.42;3.83;;;;;;;;;;5125848;27;20031;-75
2020/12/16 08:31:58;;;;;;;26.45;7.32;;;;;;;;;;5124542;28;20028;-75
2020/12/16 08:34:25;;;;;;;54.83;23.98;;;;;;;;;;5128201;27;20405;-75
2020/12/16 08:36:51;;;;;;;24.23;7.70;;;;;;;;;;5121480;27;20020;-75
2020/12/16 08:39:23;;;;;;;22.92;5.10;;;;;;;;;;5108046;28;20031;-75
2020/12/16 08:41:52;;;;;;;22.40;3.63;;;;;;;;;;5108319;28;20395;-75
2020/12/16 08:44:21;;;;;;;24.80;4.47;;;;;;;;;;5128966;27;20035;-75
2020/12/16 08:46:47;;;;;;;33.70;4.18;;;;;;;;;;5126115;28;20073;-75
2020/12/16 08:49:12;;;;;;;23.60;3.38;;;;;;;;;;5124277;27;20039;-75
2020/12/16 08:51:39;;;;;;;23.55;4.47;;;;;;;;;;5121627;28;20023;-75
2020/12/16 08:54:06;;;;;;;23.65;3.15;;;;;;;;;;5126936;27;20790;-74
2020/12/16 08:56:40;;;;;;;14.43;2.88;;;;;;;;;;5125857;27;20102;-75
2020/12/16 08:59:15;;;;;;;23.95;3.58;;;;;;;;;;5128500;27;20030;-75
2020/12/16 09:01:42;;;;;;;26.15;4.40;;;;;;;;;;5111302;27;20496;-75
2020/12/16 09:04:08;;;;;;;22.73;3.33;;;;;;;;;;5120810;28;20391;-75
2020/12/16 09:06:34;;;;;;;18.55;3.63;;;;;;;;;;5124597;27;20070;-74
2020/12/16 09:08:59;;;;;;;21.25;3.40;;;;;;;;;;5124420;27;20055;-74
2020/12/16 09:11:25;;;;;;;25.17;2.92;;;;;;;;;;5111142;27;20483;-75
2020/12/16 09:13:51;;;;;;;27.38;3.63;;;;;;;;;;5102214;28;20028;-75
2020/12/16 09:16:19;;;;;;;26.58;3.75;;;;;;;;;;5112513;28;20507;-75
2020/12/16 09:18:45;;;;;;;17.38;3.40;;;;;;;;;;5111256;28;20487;-74
2020/12/16 09:21:10;;;;;;;19.90;3.83;;;;;;;;;;5111585;28;20088;-74
2020/12/16 09:23:36;;;;;;;20.00;3.80;;;;;;;;;;5111606;28;20020;-75
2020/12/16 09:26:01;;;;;;;20.83;3.75;;;;;;;;;;5112293;27;20107;-75
2020/12/16 09:28:36;;;;;;;31.05;4.80;;;;;;;;;;5113113;28;20372;-75
2020/12/16 09:31:13;;;;;;;18.73;2.97;;;;;;;;;;5113307;28;20480;-75
2020/12/16 09:33:38;;;;;;;25.98;3.60;;;;;;;;;;5111002;28;20023;-75
2020/12/16 09:36:04;;;;;;;22.75;2.92;;;;;;;;;;5107296;28;20506;-75
2020/12/16 09:38:29;;;;;;;13.40;3.47;;;;;;;;;;5110041;28;20314;-75
2020/12/16 09:40:58;;;;;;;17.98;3.00;;;;;;;;;;5110243;28;20042;-75
2020/12/16 09:43:36;;;;;;;16.20;2.60;;;;;;;;;;5108346;28;20376;-75
2020/12/16 09:46:12;;;;;;;28.42;3.63;;;;;;;;;;5109738;28;20797;-75
2020/12/16 09:48:37;;;;;;;22.40;3.33;;;;;;;;;;5108942;28;20043;-75
2020/12/16 09:51:10;;;;;;;21.25;4.25;;;;;;;;;;5111410;28;20457;-75
2020/12/16 09:53:39;;;;;;;20.95;4.63;;;;;;;;;;5111399;28;20024;-75
2020/12/16 09:56:04;;;;;;;32.67;5.97;;;;;;;;;;5103377;27;20157;-75
2020/12/16 09:58:35;;;;;;;20.95;3.67;;;;;;;;;;5112012;28;20051;-75
2020/12/16 10:01:00;;;;;;;29.77;4.63;;;;;;;;;;5111171;28;20044;-75
2020/12/16 10:03:25;;;;;;;25.23;4.03;;;;;;;;;;5111062;28;20054;-75
2020/12/16 10:05:51;;;;;;;24.23;4.97;;;;;;;;;;5103674;28;20068;-75
2020/12/16 10:08:17;;;;;;;31.92;4.93;;;;;;;;;;5100187;28;20356;-79
2020/12/16 10:10:42;;;;;;;18.45;4.07;;;;;;;;;;5111390;28;20040;-78
2020/12/16 10:13:08;;;;;;;30.45;4.25;;;;;;;;;;5111733;28;20042;-78
2020/12/16 10:15:33;;;;;;;21.10;3.90;;;;;;;;;;5111238;28;20024;-77
2020/12/16 10:17:58;;;;;;;20.80;4.25;;;;;;;;;;5095431;28;20082;-77
2020/12/16 10:20:24;;;;;;;24.42;3.95;;;;;;;;;;5108568;28;20027;-77
2020/12/16 10:22:50;;;;;;;27.27;4.18;;;;;;;;;;5106062;28;20016;-78
2020/12/16 10:25:15;;;;;;;22.83;4.15;;;;;;;;;;5109890;28;20024;-78
2020/12/16 10:27:40;;;;;;;13.75;3.35;;;;;;;;;;5110468;28;20023;-78
2020/12/16 10:30:06;;;;;;;21.45;4.28;;;;;;;;;;5108501;28;20108;-79
2020/12/16 10:32:31;;;;;;;24.80;5.00;;;;;;;;;;5109795;28;20043;-78
2020/12/16 10:34:57;;;;;;;22.92;4.85;;;;;;;;;;5107324;28;20112;-77
2020/12/16 10:37:23;;;;;;;19.55;3.85;;;;;;;;;;5110921;28;20756;-78
2020/12/16 10:39:48;;;;;;;21.00;3.63;;;;;;;;;;5109910;28;20043;-79
2020/12/16 10:42:14;;;;;;;17.30;3.35;;;;;;;;;;5110281;28;20039;-78
2020/12/16 10:44:39;;;;;;;18.35;3.25;;;;;;;;;;5108165;28;20023;-78
2020/12/16 10:47:06;;;;;;;19.75;5.60;;;;;;;;;;5110088;28;20107;-78
2020/12/16 10:49:31;;;;;;;21.65;4.15;;;;;;;;;;5105271;28;20502;-78
2020/12/16 10:52:02;;;;;;;18.23;2.97;;;;;;;;;;5099121;28;20032;-78
2020/12/16 10:54:27;;;;;;;29.63;4.18;;;;;;;;;;5110772;28;20028;-78
2020/12/16 10:56:53;;;;;;;23.02;3.95;;;;;;;;;;5100526;28;20141;-77
2020/12/16 10:59:18;;;;;;;13.95;3.17;;;;;;;;;;5093241;28;20402;-78
2020/12/16 11:01:44;;;;;;;22.25;3.47;;;;;;;;;;5110330;28;20044;-78
2020/12/16 11:04:09;;;;;;;19.00;3.90;;;;;;;;;;5109618;28;20528;-77
2020/12/16 11:06:35;;;;;;;26.15;3.65;;;;;;;;;;5109469;28;20077;-75
2020/12/16 11:09:00;;;;;;;21.10;3.28;;;;;;;;;;5110410;28;20030;-76
2020/12/16 11:11:26;;;;;;;14.02;3.70;;;;;;;;;;5110140;28;20128;-77
2020/12/16 11:13:52;;;;;;;22.30;4.82;;;;;;;;;;5110306;28;20080;-78
2020/12/16 11:16:18;;;;;;;19.33;4.63;;;;;;;;;;5101441;28;20074;-78
2020/12/16 11:18:44;;;;;;;13.68;3.08;;;;;;;;;;5107737;28;20477;-78
2020/12/16 11:21:10;;;;;;;15.00;3.47;;;;;;;;;;5107953;27;20061;-78
2020/12/16 11:23:35;;;;;;;14.65;3.65;;;;;;;;;;5106570;28;20020;-76
2020/12/16 11:26:02;;;;;;;20.98;4.38;;;;;;;;;;5104233;28;20505;-78
2020/12/16 11:28:28;;;;;;;25.92;4.55;;;;;;;;;;5107651;28;20050;-78
2020/12/16 11:30:53;;;;;;;17.48;3.67;;;;;;;;;;5093745;28;20474;-77
2020/12/16 11:33:18;;;;;;;29.00;4.57;;;;;;;;;;5103789;28;20030;-74
2020/12/16 11:35:44;;;;;;;25.02;4.30;;;;;;;;;;5105285;28;20043;-76
2020/12/16 11:38:09;;;;;;;18.25;3.28;;;;;;;;;;5107879;28;20035;-78
2020/12/16 11:40:34;;;;;;;20.73;4.05;;;;;;;;;;5106649;28;20114;-76
2020/12/16 11:42:59;;;;;;;23.65;4.28;;;;;;;;;;5105061;28;20023;-80
2020/12/16 11:45:25;;;;;;;17.85;3.88;;;;;;;;;;5108881;28;20032;-80
2020/12/16 11:47:50;;;;;;;22.02;4.13;;;;;;;;;;5106700;28;20031;-79
2020/12/16 11:50:16;;;;;;;23.35;5.57;;;;;;;;;;5107994;28;20095;-75
2020/12/16 11:52:41;;;;;;;29.58;9.60;;;;;;;;;;5108731;28;20046;-79
2020/12/16 11:55:07;;;;;;;15.90;5.93;;;;;;;;;;5107832;28;20035;-80
2020/12/16 11:57:32;;;;;;;14.73;4.70;;;;;;;;;;5107579;28;20084;-79
2020/12/16 11:59:57;;;;;;;23.88;8.43;;;;;;;;;;5107728;28;20024;-78
2020/12/16 12:02:23;;;;;;;12.35;5.43;;;;;;;;;;5107571;28;20105;-79
2020/12/16 12:04:48;;;;;;;17.38;4.25;;;;;;;;;;5107293;28;20501;-78
2020/12/16 12:07:13;;;;;;;8.85;3.17;;;;;;;;;;5107663;28;20050;-78
2020/12/16 12:09:39;;;;;;;6.68;2.50;;;;;;;;;;5107851;28;20027;-78
2020/12/16 12:12:04;;;;;;;8.38;2.20;;;;;;;;;;5106715;28;20031;-78
2020/12/16 12:14:30;;;;;;;9.10;2.42;;;;;;;;;;5098818;28;20069;-78
2020/12/16 12:16:56;;;;;;;10.50;2.15;;;;;;;;;;5106149;28;20076;-78
2020/12/16 12:19:21;;;;;;;10.48;2.15;;;;;;;;;;5102499;28;20032;-79
2020/12/16 12:21:47;;;;;;;7.40;1.63;;;;;;;;;;5106793;28;20107;-79
2020/12/16 12:24:12;;;;;;;7.53;1.92;;;;;;;;;;5105455;28;20122;-78
2020/12/16 12:26:38;;;;;;;5.35;1.83;;;;;;;;;;5107544;28;20448;-78
2020/12/16 12:29:03;;;;;;;4.10;1.60;;;;;;;;;;5099364;28;20023;-77
2020/12/16 12:31:28;;;;;;;12.32;1.70;;;;;;;;;;5093661;28;20065;-73
2020/12/16 12:33:54;;;;;;;13.65;2.40;;;;;;;;;;5107919;28;20020;-79
2020/12/16 12:36:19;;;;;;;13.63;3.63;;;;;;;;;;5106514;28;20062;-79
2020/12/16 12:38:44;;;;;;;8.50;2.10;;;;;;;;;;5106288;28;20031;-79
2020/12/16 12:41:09;;;;;;;8.27;1.75;;;;;;;;;;5106568;28;20073;-78
2020/12/16 12:43:35;;;;;;;9.23;2.30;;;;;;;;;;5101906;28;20027;-78
2020/12/16 12:46:00;;;;;;;8.52;2.50;;;;;;;;;;5107697;28;20415;-77
2020/12/16 12:48:25;;;;;;;10.40;3.17;;;;;;;;;;5109840;28;20027;-79
2020/12/16 12:50:51;;;;;;;15.98;2.70;;;;;;;;;;5112258;28;20126;-80
2020/12/16 12:53:16;;;;;;;13.98;3.85;;;;;;;;;;5111872;28;20111;-79
2020/12/16 12:55:41;;;;;;;19.63;7.15;;;;;;;;;;5111511;28;20040;-78
2020/12/16 12:58:07;;;;;;;23.48;9.18;;;;;;;;;;5112339;28;20020;-78
2020/12/16 13:00:32;;;;;;;26.08;10.13;;;;;;;;;;5111400;28;20043;-78
2020/12/16 13:02:58;;;;;;;28.17;11.88;;;;;;;;;;5111968;28;20380;-79
2020/12/16 13:05:23;;;;;;;31.77;12.88;;;;;;;;;;5112065;28;20038;-79
2020/12/16 13:07:48;;;;;;;27.75;12.10;;;;;;;;;;5111455;28;20042;-79
2020/12/16 13:10:13;;;;;;;16.77;7.28;;;;;;;;;;5098993;28;20073;-78
2020/12/16 13:12:39;;;;;;;9.52;3.10;;;;;;;;;;5110655;28;20043;-75
2020/12/16 13:15:04;;;;;;;9.88;3.60;;;;;;;;;;5112404;28;20047;-79
2020/12/16 13:17:30;;;;;;;11.23;2.53;;;;;;;;;;5111078;28;20963;-78
2020/12/16 13:19:56;;;;;;;12.20;2.75;;;;;;;;;;5099521;28;20023;-78
2020/12/16 13:22:22;;;;;;;18.48;6.32;;;;;;;;;;5110778;28;20031;-78
2020/12/16 13:24:48;;;;;;;14.73;2.95;;;;;;;;;;5108241;27;20470;-78
2020/12/16 13:27:17;;;;;;;15.10;3.97;;;;;;;;;;5110039;28;20031;-77
2020/12/16 13:29:43;;;;;;;20.27;4.40;;;;;;;;;;5111554;28;20394;-74
2020/12/16 13:32:10;;;;;;;15.63;4.20;;;;;;;;;;5106092;28;20032;-78
2020/12/16 13:34:35;;;;;;;16.83;5.35;;;;;;;;;;5102122;28;20067;-78
2020/12/16 13:37:00;;;;;;;12.18;4.82;;;;;;;;;;5110567;28;20108;-77
2020/12/16 13:39:25;;;;;;;17.65;5.65;;;;;;;;;;5111538;28;20455;-78
2020/12/16 13:41:51;;;;;;;21.42;4.97;;;;;;;;;;5111660;28;20034;-78
2020/12/16 13:44:17;;;;;;;21.13;4.38;;;;;;;;;;5111018;28;20042;-75
2020/12/16 13:46:42;;;;;;;19.52;5.38;;;;;;;;;;5112051;28;20026;-78
2020/12/16 13:49:08;;;;;;;21.02;5.45;;;;;;;;;;5105940;28;20542;-77
2020/12/16 13:51:33;;;;;;;15.35;5.97;;;;;;;;;;5111194;28;20042;-77
2020/12/16 13:53:58;;;;;;;25.10;7.68;;;;;;;;;;5111251;28;20383;-78
2020/12/16 13:56:27;;;;;;;20.23;6.35;;;;;;;;;;5108900;28;20027;-78
2020/12/16 13:58:52;;;;;;;16.30;6.20;;;;;;;;;;5111237;28;20031;-78
2020/12/16 14:01:18;;;;;;;17.98;7.78;;;;;;;;;;5112110;28;20047;-77
2020/12/16 14:03:43;;;;;;;21.75;6.95;;;;;;;;;;5111585;28;20429;-78
2020/12/16 14:06:11;;;;;;;21.27;7.68;;;;;;;;;;5111353;28;20024;-77
2020/12/16 14:08:37;;;;;;;19.67;6.40;;;;;;;;;;5108987;28;20022;-78
2020/12/16 14:11:03;;;;;;;22.13;6.50;;;;;;;;;;5110100;28;20042;-78
2020/12/16 14:13:28;;;;;;;17.42;5.45;;;;;;;;;;5109716;28;20031;-78
2020/12/16 14:15:53;;;;;;;9.93;4.15;;;;;;;;;;5110995;28;20459;-78
2020/12/16 14:18:18;;;;;;;17.75;3.95;;;;;;;;;;5111163;28;20038;-77
2020/12/16 14:20:44;;;;;;;18.50;4.78;;;;;;;;;;5110174;28;20547;-77
2020/12/16 14:23:09;;;;;;;17.05;4.25;;;;;;;;;;5110236;28;20012;-77
2020/12/16 14:25:34;;;;;;;18.08;3.65;;;;;;;;;;5110973;28;20042;-77
2020/12/16 14:27:59;;;;;;;24.33;3.90;;;;;;;;;;5111101;28;20079;-77
2020/12/16 14:30:25;;;;;;;18.88;3.72;;;;;;;;;;5111230;28;20072;-77
2020/12/16 14:32:51;;;;;;;16.40;3.30;;;;;;;;;;5110139;28;20387;-77
2020/12/16 14:35:17;;;;;;;20.33;3.92;;;;;;;;;;5109798;28;20024;-77
2020/12/16 14:37:45;;;;;;;14.27;3.15;;;;;;;;;;5108182;27;20026;-77
2020/12/16 14:40:10;;;;;;;14.30;3.40;;;;;;;;;;5109307;28;20577;-77
2020/12/16 14:42:35;;;;;;;14.50;3.45;;;;;;;;;;5109491;28;20035;-77
2020/12/16 14:45:01;;;;;;;16.05;3.17;;;;;;;;;;5106979;28;20367;-77
2020/12/16 14:47:26;;;;;;;18.23;3.40;;;;;;;;;;5101463;28;20023;-77
2020/12/16 14:49:51;;;;;;;19.60;3.53;;;;;;;;;;5109300;28;20161;-76
2020/12/16 14:52:16;;;;;;;9.07;2.50;;;;;;;;;;5103048;28;20040;-77
2020/12/16 14:54:42;;;;;;;14.13;2.97;;;;;;;;;;5105406;28;20019;-75
2020/12/16 14:57:07;;;;;;;17.10;3.38;;;;;;;;;;5106608;28;20032;-77
2020/12/16 14:59:33;;;;;;;10.57;4.03;;;;;;;;;;5109591;28;20018;-77
2020/12/16 15:01:58;;;;;;;14.73;5.10;;;;;;;;;;5107888;28;20056;-76
2020/12/16 15:04:23;;;;;;;19.98;3.72;;;;;;;;;;5103672;28;20023;-76
2020/12/16 15:06:51;;;;;;;21.00;4.10;;;;;;;;;;5099541;28;20097;-77
2020/12/16 15:09:17;;;;;;;20.20;4.55;;;;;;;;;;5103735;28;20075;-76
2020/12/16 15:11:42;;;;;;;25.15;6.90;;;;;;;;;;5104753;28;20522;-77
2020/12/16 15:14:07;;;;;;;17.65;7.28;;;;;;;;;;5104680;28;20041;-77
2020/12/16 15:16:33;;;;;;;24.58;7.57;;;;;;;;;;5102856;28;20512;-76
2020/12/16 15:18:59;;;;;;;25.92;8.48;;;;;;;;;;5104324;28;20057;-76
2020/12/16 15:21:24;;;;;;;19.02;6.20;;;;;;;;;;5106041;28;20020;-76
2020/12/16 15:23:50;;;;;;;17.65;6.25;;;;;;;;;;5108276;28;20028;-76
2020/12/16 15:26:16;;;;;;;20.10;4.70;;;;;;;;;;5108810;28;20028;-76
2020/12/16 15:28:41;;;;;;;18.83;3.95;;;;;;;;;;5109100;28;20367;-76
2020/12/16 15:31:07;;;;;;;12.75;3.22;;;;;;;;;;5109120;28;20391;-76
2020/12/16 15:33:32;;;;;;;20.98;3.75;;;;;;;;;;5108758;28;20041;-76
2020/12/16 15:35:58;;;;;;;11.10;3.65;;;;;;;;;;5106749;28;20422;-76
2020/12/16 15:38:23;;;;;;;12.73;3.72;;;;;;;;;;5105348;28;20055;-76
2020/12/16 15:40:48;;;;;;;17.67;3.33;;;;;;;;;;5104780;28;20348;-76
2020/12/16 15:43:13;;;;;;;13.70;4.28;;;;;;;;;;5108166;28;20290;-76
2020/12/16 15:45:39;;;;;;;22.50;5.22;;;;;;;;;;5108708;28;20080;-76
2020/12/16 15:48:04;;;;;;;17.80;5.85;;;;;;;;;;5104647;28;20027;-76
2020/12/16 15:50:29;;;;;;;13.82;4.22;;;;;;;;;;5108503;28;20590;-76
2020/12/16 15:52:55;;;;;;;18.13;4.60;;;;;;;;;;5108190;28;20036;-76
2020/12/16 15:55:20;;;;;;;11.75;4.38;;;;;;;;;;5101768;28;20032;-76
2020/12/16 15:57:45;;;;;;;15.48;4.22;;;;;;;;;;5108367;28;20032;-76
2020/12/16 16:00:11;;;;;;;15.55;4.43;;;;;;;;;;5106319;28;20375;-76
2020/12/16 16:02:36;;;;;;;17.80;4.65;;;;;;;;;;5106635;28;20467;-76
2020/12/16 16:05:02;;;;;;;16.60;4.82;;;;;;;;;;5105677;28;20102;-76
2020/12/16 16:07:27;;;;;;;22.55;6.53;;;;;;;;;;5107576;28;20032;-76
2020/12/16 16:09:53;;;;;;;24.98;7.03;;;;;;;;;;5108647;28;20054;-75
2020/12/16 16:12:18;;;;;;;22.35;8.00;;;;;;;;;;5108389;28;20043;-75
2020/12/16 16:14:43;;;;;;;16.20;6.97;;;;;;;;;;5108291;28;21039;-75
2020/12/16 16:17:08;;;;;;;25.05;7.95;;;;;;;;;;5106167;28;20076;-75
2020/12/16 16:19:34;;;;;;;27.90;12.85;;;;;;;;;;5106009;28;20032;-75
2020/12/16 16:22:00;;;;;;;45.05;22.10;;;;;;;;;;5105378;28;20032;-75
2020/12/16 16:24:25;;;;;;;32.80;14.82;;;;;;;;;;5110729;28;20369;-75
2020/12/16 16:26:51;;;;;;;33.58;17.25;;;;;;;;;;5108254;28;20379;-75
2020/12/16 16:29:17;;;;;;;38.35;16.63;;;;;;;;;;5111792;28;20066;-75
2020/12/16 16:31:42;;;;;;;25.52;10.60;;;;;;;;;;5111094;28;20067;-75
2020/12/16 16:34:07;;;;;;;32.53;14.02;;;;;;;;;;5110685;28;20034;-75
2020/12/16 16:36:33;;;;;;;51.75;18.33;;;;;;;;;;5111972;28;20035;-74
2020/12/16 16:38:59;;;;;;;33.78;15.10;;;;;;;;;;5109507;28;20031;-74
2020/12/16 16:41:24;;;;;;;48.05;22.30;;;;;;;;;;5112204;28;20102;-75
2020/12/16 16:43:50;;;;;;;41.67;18.60;;;;;;;;;;5111752;28;20034;-75
2020/12/16 16:46:15;;;;;;;41.85;15.63;;;;;;;;;;5111718;27;20096;-75
2020/12/16 16:48:41;;;;;;;61.58;24.15;;;;;;;;;;5109699;28;20124;-75
2020/12/16 16:51:06;;;;;;;56.72;22.73;;;;;;;;;;5106766;28;20062;-74
2020/12/16 16:53:31;;;;;;;50.13;22.33;;;;;;;;;;5108949;28;20110;-74
2020/12/16 16:55:57;;;;;;;68.00;23.67;;;;;;;;;;5109159;28;20018;-75
2020/12/16 16:58:22;;;;;;;100.45;32.50;;;;;;;;;;5112428;28;20421;-75
2020/12/16 17:00:47;;;;;;;57.28;19.98;;;;;;;;;;5111030;28;20136;-74
2020/12/16 17:03:13;;;;;;;73.93;26.92;;;;;;;;;;5106919;27;20016;-75
2020/12/16 17:05:38;;;;;;;80.95;29.25;;;;;;;;;;5109714;28;20705;-74
2020/12/16 17:08:03;;;;;;;107.57;39.08;;;;;;;;;;5111664;28;20043;-74
2020/12/16 17:10:29;;;;;;;99.22;41.10;;;;;;;;;;5111361;28;20422;-75
2020/12/16 17:12:54;;;;;;;73.18;37.10;;;;;;;;;;5104755;28;20031;-74
2020/12/16 17:15:19;;;;;;;98.75;45.38;;;;;;;;;;5111939;28;20391;-75
2020/12/16 17:17:45;;;;;;;83.65;40.63;;;;;;;;;;5110975;28;20063;-75
2020/12/16 17:20:11;;;;;;;84.57;38.78;;;;;;;;;;5107029;28;20035;-75
2020/12/16 17:22:36;;;;;;;63.85;37.60;;;;;;;;;;5111880;28;20035;-75
2020/12/16 17:25:02;;;;;;;71.32;34.97;;;;;;;;;;5110712;28;20031;-75
2020/12/16 17:27:27;;;;;;;111.95;59.83;;;;;;;;;;5110456;28;20089;-75
2020/12/16 17:29:53;;;;;;;105.82;56.00;;;;;;;;;;5112104;28;20032;-75
2020/12/16 17:32:19;;;;;;;189.70;97.18;;;;;;;;;;5110089;28;20035;-75
2020/12/16 17:34:44;;;;;;;119.82;62.10;;;;;;;;;;5111426;28;20038;-74
2020/12/16 17:37:09;;;;;;;65.97;32.35;;;;;;;;;;5110084;28;20031;-75
2020/12/16 17:39:35;;;;;;;66.60;33.05;;;;;;;;;;5109867;28;20031;-75
2020/12/16 17:42:00;;;;;;;119.00;35.20;;;;;;;;;;5110421;28;20392;-75
2020/12/16 17:44:25;;;;;;;108.22;28.80;;;;;;;;;;5106883;28;20035;-74
2020/12/16 17:46:50;;;;;;;125.50;28.08;;;;;;;;;;5111100;28;20447;-75
2020/12/16 17:49:16;;;;;;;90.70;20.00;;;;;;;;;;5111572;28;20024;-75
2020/12/16 17:51:42;;;;;;;111.20;19.75;;;;;;;;;;5110694;28;20038;-74
2020/12/16 17:54:08;;;;;;;130.32;20.67;;;;;;;;;;5097117;28;20883;-75
2020/12/16 17:56:33;;;;;;;118.72;21.63;;;;;;;;;;5110242;28;20039;-75
2020/12/16 17:58:58;;;;;;;137.10;19.67;;;;;;;;;;5110396;28;20538;-74
2020/12/16 18:01:24;;;;;;;117.57;17.38;;;;;;;;;;5109270;28;20052;-75
2020/12/16 18:03:49;;;;;;;88.15;15.70;;;;;;;;;;5105823;28;20434;-74
2020/12/16 18:06:15;;;;;;;109.65;15.65;;;;;;;;;;5101898;28;20105;-75
2020/12/16 18:08:40;;;;;;;128.93;17.70;;;;;;;;;;5111602;28;20027;-75
2020/12/16 18:11:06;;;;;;;96.05;16.65;;;;;;;;;;5102530;28;20075;-75
2020/12/16 18:13:31;;;;;;;111.10;15.65;;;;;;;;;;5111144;28;20116;-74
2020/12/16 18:15:56;;;;;;;128.02;16.63;;;;;;;;;;5109818;28;20055;-74
2020/12/16 18:18:22;;;;;;;358.17;20.60;;;;;;;;;;5109049;28;20031;-75
2020/12/16 18:20:47;;;;;;;135.90;17.38;;;;;;;;;;5109179;28;20039;-75
2020/12/16 18:23:12;;;;;;;239.35;19.95;;;;;;;;;;5109012;28;20019;-75
2020/12/16 18:25:39;;;;;;;222.70;51.22;;;;;;;;;;5110558;28;20435;-75
2020/12/16 18:28:05;;;;;;;163.30;49.03;;;;;;;;;;5109781;28;20490;-75
2020/12/16 18:30:30;;;;;;;133.23;39.95;;;;;;;;;;5111087;28;20011;-74
2020/12/16 18:32:56;;;;;;;133.68;35.80;;;;;;;;;;5110307;28;20035;-75
2020/12/16 18:35:21;;;;;;;126.18;42.83;;;;;;;;;;5096764;28;20035;-75
2020/12/16 18:37:47;;;;;;;134.35;54.85;;;;;;;;;;5109869;28;20027;-75
2020/12/16 18:40:15;;;;;;;126.63;38.30;;;;;;;;;;5110020;28;20027;-75
2020/12/16 18:42:41;;;;;;;106.60;33.20;;;;;;;;;;5110498;28;20532;-74
2020/12/16 18:45:07;;;;;;;147.30;36.70;;;;;;;;;;5109547;28;20106;-75
2020/12/16 18:47:33;;;;;;;279.38;36.72;;;;;;;;;;5110779;28;20114;-74
2020/12/16 18:49:58;;;;;;;165.55;41.70;;;;;;;;;;5110932;28;20040;-74
2020/12/16 18:52:23;;;;;;;168.90;38.55;;;;;;;;;;5105908;28;20126;-75
2020/12/16 18:54:48;;;;;;;180.85;31.75;;;;;;;;;;5109226;28;20020;-74
2020/12/16 18:57:14;;;;;;;169.57;46.78;;;;;;;;;;5109426;28;20449;-74
2020/12/16 18:59:40;;;;;;;167.85;45.53;;;;;;;;;;5106647;28;20024;-75
2020/12/16 19:02:05;;;;;;;89.57;29.00;;;;;;;;;;5108955;28;20047;-74
2020/12/16 19:04:31;;;;;;;342.58;44.92;;;;;;;;;;5081999;28;20538;-74
2020/12/16 19:06:56;;;;;;;115.95;30.27;;;;;;;;;;5096208;28;20016;-75
2020/12/16 19:09:22;;;;;;;95.00;29.70;;;;;;;;;;5103725;28;20076;-75
2020/12/16 19:11:47;;;;;;;99.47;27.08;;;;;;;;;;5103203;28;20435;-74
2020/12/16 19:14:12;;;;;;;88.30;23.55;;;;;;;;;;5103394;28;20064;-74
2020/12/16 19:16:38;;;;;;;67.82;22.05;;;;;;;;;;5102649;28;20802;-75
2020/12/16 19:19:04;;;;;;;68.53;23.77;;;;;;;;;;5106085;28;20035;-75
2020/12/16 19:21:30;;;;;;;56.97;19.15;;;;;;;;;;5106947;28;20026;-75
2020/12/16 19:23:58;;;;;;;64.85;18.83;;;;;;;;;;5098262;28;20031;-74
2020/12/16 19:26:26;;;;;;;63.47;15.52;;;;;;;;;;5105710;28;20031;-74
2020/12/16 19:28:52;;;;;;;43.58;14.85;;;;;;;;;;5105461;28;20111;-75
2020/12/16 19:31:17;;;;;;;39.55;17.00;;;;;;;;;;5103850;28;20509;-74
2020/12/16 19:33:42;;;;;;;67.05;19.17;;;;;;;;;;5105471;28;20027;-75
2020/12/16 19:36:08;;;;;;;44.90;18.10;;;;;;;;;;5095008;28;20039;-75
2020/12/16 19:38:33;;;;;;;65.63;33.20;;;;;;;;;;5103584;28;20091;-74
2020/12/16 19:41:00;;;;;;;53.30;20.27;;;;;;;;;;5103553;28;20019;-74
2020/12/16 19:43:26;;;;;;;50.17;17.33;;;;;;;;;;5107748;28;20364;-74
2020/12/16 19:45:53;;;;;;;86.97;16.90;;;;;;;;;;5098535;28;20024;-74
2020/12/16 19:48:19;;;;;;;85.43;16.40;;;;;;;;;;5105318;28;20036;-74
2020/12/16 19:50:44;;;;;;;97.18;17.38;;;;;;;;;;5105524;28;20031;-74
2020/12/16 19:53:09;;;;;;;63.22;14.15;;;;;;;;;;5098164;28;20589;-74
2020/12/16 19:55:34;;;;;;;103.28;15.75;;;;;;;;;;5107171;28;20055;-74
2020/12/16 19:58:00;;;;;;;72.47;14.52;;;;;;;;;;5105852;28;20064;-75
2020/12/16 20:00:25;;;;;;;68.03;13.88;;;;;;;;;;5104524;28;20491;-74
2020/12/16 20:02:50;;;;;;;140.93;14.40;;;;;;;;;;5104311;28;20070;-74
2020/12/16 20:05:16;;;;;;;63.83;13.35;;;;;;;;;;5099282;28;20570;-75
2020/12/16 20:07:41;;;;;;;34.47;10.52;;;;;;;;;;5104178;28;20390;-74
2020/12/16 20:10:07;;;;;;;46.50;11.55;;;;;;;;;;5104065;28;20046;-74
2020/12/16 20:12:37;;;;;;;54.70;10.48;;;;;;;;;;5104229;28;20020;-75
2020/12/16 20:15:06;;;;;;;51.05;11.57;;;;;;;;;;5103373;28;20031;-74
2020/12/16 20:17:32;;;;;;;52.63;12.55;;;;;;;;;;5103398;28;20039;-75
2020/12/16 20:19:59;;;;;;;58.78;12.75;;;;;;;;;;5101704;28;20024;-74
2020/12/16 20:22:24;;;;;;;53.55;12.38;;;;;;;;;;5102051;28;20019;-74
2020/12/16 20:24:49;;;;;;;45.65;14.25;;;;;;;;;;5104045;28;20039;-74
2020/12/16 20:27:15;;;;;;;45.88;13.35;;;;;;;;;;5103717;28;20032;-74
2020/12/16 20:29:42;;;;;;;54.83;13.48;;;;;;;;;;5104274;28;20030;-74
2020/12/16 20:32:07;;;;;;;50.70;13.38;;;;;;;;;;5103000;28;20431;-74
2020/12/16 20:34:32;;;;;;;44.20;12.95;;;;;;;;;;5103801;28;20067;-74
2020/12/16 20:36:59;;;;;;;44.63;11.05;;;;;;;;;;5104235;28;20107;-74
2020/12/16 20:39:24;;;;;;;43.47;11.30;;;;;;;;;;5104399;28;20035;-74
2020/12/16 20:41:54;;;;;;;42.83;11.45;;;;;;;;;;5093902;28;21415;-74
2020/12/16 20:44:19;;;;;;;43.45;11.75;;;;;;;;;;5101460;28;20058;-75
2020/12/16 20:46:45;;;;;;;53.70;12.07;;;;;;;;;;5102194;28;20059;-74
2020/12/16 20:49:10;;;;;;;47.22;11.27;;;;;;;;;;5103503;28;20549;-75
2020/12/16 20:51:35;;;;;;;44.78;10.93;;;;;;;;;;5105351;28;20053;-74
2020/12/16 20:54:01;;;;;;;42.97;11.43;;;;;;;;;;5104041;28;20889;-74
2020/12/16 20:56:26;;;;;;;97.47;12.68;;;;;;;;;;5105756;28;20023;-75
2020/12/16 20:58:52;;;;;;;93.97;13.88;;;;;;;;;;5104076;28;20438;-74
2020/12/16 21:01:18;;;;;;;83.63;11.30;;;;;;;;;;5103103;28;20043;-75
2020/12/16 21:03:44;;;;;;;76.55;12.38;;;;;;;;;;5101937;28;20032;-74
2020/12/16 21:06:09;;;;;;;83.47;13.63;;;;;;;;;;5096057;28;20016;-74
2020/12/16 21:08:35;;;;;;;69.47;11.55;;;;;;;;;;5106025;28;20043;-74
2020/12/16 21:11:00;;;;;;;43.03;11.70;;;;;;;;;;5107895;28;20039;-74
2020/12/16 21:13:26;;;;;;;67.38;14.15;;;;;;;;;;5104005;28;20024;-74
2020/12/16 21:15:51;;;;;;;59.30;11.60;;;;;;;;;;5107004;28;20032;-74
2020/12/16 21:18:17;;;;;;;148.27;15.13;;;;;;;;;;5111572;28;20019;-75
2020/12/16 21:20:42;;;;;;;137.32;14.68;;;;;;;;;;5113029;28;20018;-75
2020/12/16 21:23:07;;;;;;;75.03;14.50;;;;;;;;;;5109980;28;20546;-75
2020/12/16 21:25:33;;;;;;;79.10;14.57;;;;;;;;;;5113795;28;20032;-75
2020/12/16 21:27:58;;;;;;;78.43;14.05;;;;;;;;;;5112040;28;20007;-75
2020/12/16 21:30:23;;;;;;;78.72;14.15;;;;;;;;;;5114149;28;20063;-76
2020/12/16 21:32:49;;;;;;;88.95;14.73;;;;;;;;;;5114039;28;20046;-74
2020/12/16 21:35:16;;;;;;;87.03;15.27;;;;;;;;;;5105191;28;20128;-75
2020/12/16 21:37:41;;;;;;;85.25;13.43;;;;;;;;;;5104393;28;20032;-74
2020/12/16 21:40:06;;;;;;;125.45;14.95;;;;;;;;;;5109085;28;20045;-74
2020/12/16 21:42:32;;;;;;;268.83;15.48;;;;;;;;;;5111340;28;20020;-74
2020/12/16 21:44:57;;;;;;;347.20;18.95;;;;;;;;;;5106452;28;20042;-74
2020/12/16 21:47:22;;;;;;;197.77;16.95;;;;;;;;;;5110543;28;20019;-75
2020/12/16 21:49:48;;;;;;;129.30;15.75;;;;;;;;;;5109958;28;20030;-73
2020/12/16 21:52:13;;;;;;;86.70;15.20;;;;;;;;;;5109271;28;20044;-74
2020/12/16 21:54:38;;;;;;;66.13;13.82;;;;;;;;;;5108473;28;20031;-74
2020/12/16 21:57:03;;;;;;;76.38;14.15;;;;;;;;;;5109732;28;20012;-75
2020/12/16 21:59:29;;;;;;;75.63;14.40;;;;;;;;;;5106322;28;20027;-74
2020/12/16 22:01:55;;;;;;;78.47;13.13;;;;;;;;;;5107457;28;20050;-74
2020/12/16 22:04:21;;;;;;;144.93;14.65;;;;;;;;;;5103236;28;20016;-75
2020/12/16 22:06:50;;;;;;;86.80;13.35;;;;;;;;;;5111985;28;20039;-75
2020/12/16 22:09:15;;;;;;;108.82;15.80;;;;;;;;;;5111339;28;20024;-74
2020/12/16 22:11:41;;;;;;;76.07;13.38;;;;;;;;;;5114935;28;20024;-75
2020/12/16 22:14:06;;;;;;;65.40;12.85;;;;;;;;;;5108984;28;20040;-75
2020/12/16 22:16:31;;;;;;;62.90;13.77;;;;;;;;;;5109014;28;20106;-75